createdAt,value
2023-06-25T00:01:44.624Z,16.53
2023-06-25T00:06:52.546Z,16.36
2023-06-25T00:11:57.744Z,16.23
2023-06-25T00:17:04.701Z,16.01
2023-06-25T00:22:12.647Z,16.08
2023-06-25T00:27:17.992Z,16.05
2023-06-25T00:32:25.571Z,16.10
2023-06-25T00:37:38.145Z,15.62
2023-06-25T00:42:45.163Z,15.82
2023-06-25T00:47:50.771Z,15.92
2023-06-25T00:52:59.789Z,15.79
2023-06-25T00:58:06.364Z,15.81
2023-06-25T01:03:28.455Z,15.61
2023-06-25T01:08:38.967Z,15.71
2023-06-25T01:13:44.582Z,15.51
2023-06-25T01:24:04.279Z,15.57
2023-06-25T01:29:09.447Z,15.55
2023-06-25T01:34:14.712Z,15.37
2023-06-25T01:39:23.476Z,15.47
2023-06-25T01:44:33.084Z,15.35
2023-06-25T01:49:39.171Z,15.42
2023-06-25T01:54:47.521Z,14.99
2023-06-25T01:59:54.184Z,15.04
2023-06-25T02:04:59.554Z,14.99
2023-06-25T02:10:08.288Z,14.92
2023-06-25T02:15:14.028Z,14.83
2023-06-25T02:20:20.871Z,14.99
2023-06-25T02:25:28.597Z,15.16
2023-06-25T02:30:33.825Z,15.02
2023-06-25T02:35:39.496Z,15.07
2023-06-25T02:40:48.413Z,14.69
2023-06-25T02:45:53.864Z,14.66
2023-06-25T02:51:00.147Z,14.56
2023-06-25T02:56:11.229Z,14.65
2023-06-25T03:01:16.664Z,14.72
2023-06-25T03:06:22.064Z,14.69
2023-06-25T03:11:29.936Z,14.35
2023-06-25T03:16:35.411Z,14.87
2023-06-25T03:21:40.613Z,14.78
2023-06-25T03:26:48.557Z,14.51
2023-06-25T03:31:54.161Z,14.59
2023-06-25T03:37:03.394Z,14.76
2023-06-25T03:42:15.361Z,14.57
2023-06-25T03:47:20.839Z,14.27
2023-06-25T03:52:26.514Z,14.59
2023-06-25T03:57:37.410Z,14.58
2023-06-25T04:02:44.051Z,14.32
2023-06-25T04:07:51.024Z,14.27
2023-06-25T04:12:59.033Z,14.80
2023-06-25T04:18:04.533Z,15.14
2023-06-25T04:23:09.908Z,15.37
2023-06-25T04:28:20.198Z,15.50
2023-06-25T04:33:26.415Z,15.68
2023-06-25T04:38:32.407Z,15.90
2023-06-25T04:43:40.753Z,16.17
2023-06-25T04:48:52.386Z,16.39
2023-06-25T04:53:58.144Z,16.71
2023-06-25T04:59:05.908Z,17.27
2023-06-25T05:04:11.152Z,17.13
2023-06-25T05:09:16.472Z,17.84
2023-06-25T05:14:27.014Z,18.05
2023-06-25T05:19:32.204Z,18.29
2023-06-25T05:24:38.871Z,19.04
2023-06-25T05:29:46.687Z,19.79
2023-06-25T05:34:51.827Z,20.42
2023-06-25T05:39:57.042Z,20.65
2023-06-25T05:45:04.931Z,21.26
2023-06-25T05:50:11.026Z,21.76
2023-06-25T05:55:16.193Z,21.89
2023-06-25T06:00:24.752Z,22.97
2023-06-25T06:05:29.865Z,24.03
2023-06-25T06:10:36.244Z,23.16
2023-06-25T06:15:44.349Z,26.39
2023-06-25T06:20:51.808Z,26.34
2023-06-25T06:25:57.185Z,27.62
2023-06-25T06:31:05.284Z,26.58
2023-06-25T06:36:10.712Z,26.49
2023-06-25T06:41:16.585Z,26.18
2023-06-25T06:46:26.834Z,26.01
2023-06-25T06:51:31.963Z,25.51
2023-06-25T06:56:38.515Z,27.12
2023-06-25T07:01:46.386Z,26.84
2023-06-25T07:06:51.902Z,26.78
2023-06-25T07:11:57.745Z,27.19
2023-06-25T07:17:05.460Z,26.94
2023-06-25T07:22:10.881Z,25.58
2023-06-25T07:27:16.282Z,28.17
2023-06-25T07:32:26.314Z,28.20
2023-06-25T07:37:31.807Z,28.15
2023-06-25T07:42:37.004Z,28.35
2023-06-25T07:47:46.143Z,28.45
2023-06-25T07:52:51.329Z,28.15
2023-06-25T07:57:56.590Z,26.86
2023-06-25T08:03:04.945Z,25.77
2023-06-25T08:08:10.124Z,26.72
2023-06-25T08:13:16.253Z,26.84
2023-06-25T08:18:24.077Z,26.96
2023-06-25T08:23:29.304Z,27.13
2023-06-25T08:28:34.518Z,27.64
2023-06-25T08:33:43.015Z,26.63
2023-06-25T08:38:48.318Z,26.63
2023-06-25T08:43:56.174Z,27.39
2023-06-25T08:49:06.584Z,28.01
2023-06-25T08:54:12.773Z,27.87
2023-06-25T08:59:17.977Z,27.81
2023-06-25T09:04:26.224Z,26.77
2023-06-25T09:09:31.345Z,27.10
2023-06-25T09:14:39.519Z,27.29
2023-06-25T09:19:49.725Z,26.94
2023-06-25T09:24:55.034Z,27.15
2023-06-25T09:30:00.783Z,26.68
2023-06-25T09:35:13.300Z,27.61
2023-06-25T09:40:20.050Z,26.64
2023-06-25T09:45:26.480Z,25.72
2023-06-25T09:50:37.889Z,27.09
2023-06-25T09:55:44.310Z,27.88
2023-06-25T10:00:50.369Z,27.41
2023-06-25T10:05:58.958Z,26.69
2023-06-25T10:11:05.832Z,27.03
2023-06-25T10:16:11.046Z,27.34
2023-06-25T10:21:26.485Z,27.59
2023-06-25T10:26:33.121Z,26.73
2023-06-25T10:31:44.597Z,27.62
2023-06-25T10:36:56.029Z,28.36
2023-06-25T10:42:05.059Z,27.46
2023-06-25T10:47:13.499Z,28.73
2023-06-25T10:52:21.992Z,28.90
2023-06-25T10:57:30.010Z,28.19
2023-06-25T11:02:36.128Z,27.34
2023-06-25T11:07:43.962Z,26.85
2023-06-25T11:12:49.307Z,27.23
2023-06-25T11:17:55.592Z,26.80
2023-06-25T11:23:03.872Z,26.82
2023-06-25T11:28:12.762Z,27.60
2023-06-25T11:33:19.545Z,27.87
2023-06-25T11:38:33.849Z,27.92
2023-06-25T11:43:42.030Z,27.73
2023-06-25T11:48:51.805Z,27.70
2023-06-25T11:54:01.406Z,26.95
2023-06-25T11:59:08.249Z,27.42
2023-06-25T12:04:13.461Z,27.43
2023-06-25T12:09:22.565Z,28.26
2023-06-25T12:14:27.739Z,28.37
2023-06-25T12:19:33.052Z,28.99
2023-06-25T12:24:40.879Z,28.05
2023-06-25T12:29:46.043Z,27.80
2023-06-25T12:34:51.149Z,27.50
2023-06-25T12:39:58.950Z,27.61
2023-06-25T12:45:04.146Z,27.64
2023-06-25T12:50:12.506Z,27.50
2023-06-25T12:55:20.570Z,27.53
2023-06-25T13:00:41.086Z,27.99
2023-06-25T13:05:52.206Z,27.37
2023-06-25T13:11:00.032Z,27.90
2023-06-25T13:16:05.208Z,26.92
2023-06-25T13:21:10.605Z,27.73
2023-06-25T13:26:18.499Z,27.68
2023-06-25T13:31:24.586Z,27.93
2023-06-25T13:36:30.572Z,27.44
2023-06-25T13:41:38.397Z,28.07
2023-06-25T13:46:43.611Z,28.58
2023-06-25T13:51:48.844Z,27.41
2023-06-25T13:56:57.109Z,27.87
2023-06-25T14:02:02.973Z,28.03
2023-06-25T14:07:08.820Z,27.57
2023-06-25T14:12:17.090Z,27.92
2023-06-25T14:17:22.869Z,27.34
2023-06-25T14:22:28.124Z,26.79
2023-06-25T14:27:36.147Z,27.03
2023-06-25T14:32:41.493Z,27.38
2023-06-25T14:37:46.872Z,27.12
2023-06-25T14:42:55.992Z,27.34
2023-06-25T14:48:01.125Z,26.89
2023-06-25T14:53:10.488Z,27.28
2023-06-25T14:58:18.345Z,27.19
2023-06-25T15:03:24.290Z,27.50
2023-06-25T15:08:31.044Z,28.35
2023-06-25T15:13:40.142Z,28.73
2023-06-25T15:18:45.459Z,28.19
2023-06-25T15:23:52.286Z,28.61
2023-06-25T15:29:00.205Z,28.03
2023-06-25T15:34:09.287Z,28.28
2023-06-25T15:39:14.499Z,27.40
2023-06-25T15:44:22.277Z,27.62
2023-06-25T15:49:27.813Z,27.51
2023-06-25T15:54:32.968Z,27.91
2023-06-25T15:59:42.874Z,27.59
2023-06-25T16:04:50.654Z,27.74
2023-06-25T16:10:00.210Z,27.91
2023-06-25T16:15:09.141Z,28.13
2023-06-25T16:20:14.812Z,27.93
2023-06-25T16:25:20.236Z,26.87
2023-06-25T16:30:31.682Z,26.39
2023-06-25T16:35:39.702Z,26.46
2023-06-25T16:40:46.166Z,26.95
2023-06-25T16:45:53.941Z,26.01
2023-06-25T16:50:59.087Z,26.29
2023-06-25T16:56:04.175Z,26.40
2023-06-25T17:01:14.821Z,26.35
2023-06-25T17:06:21.518Z,26.38
2023-06-25T17:11:27.665Z,26.27
2023-06-25T17:16:35.573Z,25.61
2023-06-25T17:21:41.949Z,26.02
2023-06-25T17:26:47.888Z,26.48
2023-06-25T17:32:00.116Z,26.06
2023-06-25T17:37:07.797Z,25.84
2023-06-25T17:42:15.301Z,25.58
2023-06-25T17:47:23.566Z,25.56
2023-06-25T17:52:30.443Z,25.71
2023-06-25T17:57:35.801Z,25.60
2023-06-25T18:02:43.727Z,25.67
2023-06-25T18:07:48.950Z,25.33
2023-06-25T18:12:54.058Z,25.23
2023-06-25T18:18:01.823Z,25.18
2023-06-25T18:23:07.106Z,25.08
2023-06-25T18:28:12.523Z,25.33
2023-06-25T18:33:20.310Z,25.27
2023-06-25T18:38:25.513Z,25.18
2023-06-25T18:43:31.880Z,25.14
2023-06-25T18:48:40.077Z,24.90
2023-06-25T18:53:45.221Z,24.89
2023-06-25T18:58:50.279Z,24.63
2023-06-25T19:03:58.941Z,24.51
2023-06-25T19:09:04.501Z,24.63
2023-06-25T19:14:09.814Z,24.50
2023-06-25T19:19:18.292Z,24.33
2023-06-25T19:24:24.594Z,24.01
2023-06-25T19:29:30.623Z,23.75
2023-06-25T19:34:38.500Z,23.44
2023-06-25T19:39:43.486Z,23.42
2023-06-25T19:44:48.910Z,23.37
2023-06-25T19:49:57.934Z,23.21
2023-06-25T19:55:04.033Z,23.06
2023-06-25T20:00:11.506Z,23.18
2023-06-25T20:05:23.456Z,22.89
2023-06-25T20:10:28.791Z,22.88
2023-06-25T20:15:33.967Z,22.61
2023-06-25T20:20:41.678Z,22.49
2023-06-25T20:25:46.769Z,22.16
2023-06-25T20:30:51.909Z,21.90
2023-06-25T20:36:00.676Z,21.86
2023-06-25T20:41:23.236Z,21.71
2023-06-25T20:46:31.626Z,21.56
2023-06-25T20:51:39.440Z,21.59
2023-06-25T20:56:44.751Z,21.73
2023-06-25T21:01:49.896Z,21.51
2023-06-25T21:06:57.641Z,21.27
2023-06-25T21:12:02.854Z,21.31
2023-06-25T21:17:08.430Z,21.13
2023-06-25T21:22:16.273Z,20.79
2023-06-25T21:27:21.415Z,20.60
2023-06-25T21:32:26.872Z,20.66
2023-06-25T21:37:36.907Z,20.44
2023-06-25T21:42:42.095Z,20.31
2023-06-25T21:47:47.387Z,20.20
2023-06-25T21:52:55.239Z,20.18
2023-06-25T21:58:00.456Z,19.89
2023-06-25T22:03:05.875Z,20.17
2023-06-25T22:08:13.824Z,20.17
2023-06-25T22:13:19.986Z,19.92
2023-06-25T22:18:25.096Z,19.81
2023-06-25T22:23:35.303Z,19.51
2023-06-25T22:28:40.584Z,19.61
2023-06-25T22:33:45.749Z,19.57
2023-06-25T22:38:53.552Z,19.22
2023-06-25T22:43:58.901Z,19.01
2023-06-25T22:49:04.685Z,19.22
2023-06-25T22:54:12.547Z,19.29
2023-06-25T22:59:18.098Z,19.11
2023-06-25T23:04:23.322Z,19.13
2023-06-25T23:09:34.832Z,19.07
2023-06-25T23:14:39.990Z,18.51
2023-06-25T23:19:45.918Z,18.61
2023-06-25T23:24:53.732Z,18.72
2023-06-25T23:29:59.587Z,18.39
2023-06-25T23:35:04.893Z,18.81
2023-06-25T23:40:14.286Z,18.67
2023-06-25T23:45:19.562Z,18.49
2023-06-25T23:50:25.430Z,18.29
2023-06-25T23:55:33.324Z,18.34
